Time;durP1;ratioP1;P1;durP2;ratioP2;P2;SDS_P1;SDS_P2;PMS_P1;PMS_P2;Temp;Humidity;BMP_temperature;BMP_pressure;BME280_temperature;BME280_humidity;BME280_pressure;Samples;Min_cycle;Max_cycle;Signal;HPM_P1;HPM_P2
2022/02/13 00:03:20;;;;;;;2.77;1.20;;;17.20;61.30;;;;;;10517334;28;20564;-67
2022/02/13 00:08:42;;;;;;;2.60;1.10;;;17.20;61.30;;;;;;10508038;28;20199;-67
2022/02/13 00:14:05;;;;;;;1.30;1.03;;;17.20;61.20;;;;;;10521971;28;20208;-67
2022/02/13 00:19:28;;;;;;;1.23;1.10;;;17.20;61.40;;;;;;10517480;28;20846;-67
2022/02/13 00:24:50;;;;;;;1.50;1.10;;;17.20;61.30;;;;;;10490442;28;20754;-67
2022/02/13 00:30:16;;;;;;;1.77;1.30;;;17.20;61.30;;;;;;10492746;28;20685;-67
2022/02/13 00:35:38;;;;;;;1.30;1.00;;;17.20;61.30;;;;;;10529951;28;20723;-67
2022/02/13 00:41:00;;;;;;;1.47;1.00;;;17.20;61.30;;;;;;10529808;28;20641;-67
2022/02/13 00:46:24;;;;;;;1.20;1.03;;;17.20;61.20;;;;;;10525463;28;20590;-68
2022/02/13 00:51:46;;;;;;;1.33;1.23;;;17.20;61.30;;;;;;10508248;28;20299;-67
2022/02/13 00:57:08;;;;;;;1.13;1.03;;;17.20;61.30;;;;;;10502026;28;20203;-67
2022/02/13 01:02:32;;;;;;;2.27;1.00;;;17.20;61.20;;;;;;10517748;28;20216;-67
2022/02/13 01:07:54;;;;;;;1.20;1.00;;;17.20;61.20;;;;;;10491202;28;20200;-67
2022/02/13 01:13:16;;;;;;;1.73;1.00;;;17.20;61.20;;;;;;10529296;28;20203;-68
2022/02/13 01:18:40;;;;;;;2.00;1.23;;;17.20;61.20;;;;;;10530815;28;20632;-67
2022/02/13 01:24:02;;;;;;;2.20;1.27;;;17.20;61.20;;;;;;10516543;28;20224;-68
2022/02/13 01:29:25;;;;;;;1.37;1.07;;;17.20;61.20;;;;;;10488377;28;20200;-67
2022/02/13 01:34:48;;;;;;;1.13;1.00;;;17.20;61.20;;;;;;10528872;28;20234;-67
2022/02/13 01:40:13;;;;;;;1.00;0.90;;;17.20;61.20;;;;;;10505684;28;20208;-67
2022/02/13 01:45:36;;;;;;;1.03;0.93;;;17.20;61.20;;;;;;10526141;28;20223;-68
2022/02/13 01:50:59;;;;;;;0.73;0.67;;;17.20;61.20;;;;;;10525092;28;20219;-68
2022/02/13 01:56:22;;;;;;;1.80;1.00;;;17.20;61.20;;;;;;10525676;28;20195;-67
2022/02/13 02:01:44;;;;;;;1.27;1.00;;;17.20;61.20;;;;;;10508264;28;20216;-68
2022/02/13 02:07:08;;;;;;;1.13;0.90;;;17.20;61.20;;;;;;10525246;28;20234;-66
2022/02/13 02:12:30;;;;;;;1.23;1.13;;;17.10;61.10;;;;;;10505012;28;20220;-67
2022/02/13 02:17:52;;;;;;;0.80;0.77;;;17.20;61.10;;;;;;10520482;28;20661;-67
2022/02/13 02:23:15;;;;;;;1.20;1.10;;;17.20;61.20;;;;;;10534590;28;20220;-67
2022/02/13 02:28:38;;;;;;;1.30;1.00;;;17.20;61.10;;;;;;10535226;28;20195;-67
2022/02/13 02:34:00;;;;;;;1.30;0.80;;;17.20;61.20;;;;;;10517702;28;20215;-67
2022/02/13 02:39:24;;;;;;;1.00;0.90;;;17.20;61.10;;;;;;10530519;28;20646;-67
2022/02/13 02:44:46;;;;;;;1.47;0.90;;;17.10;61.10;;;;;;10537189;28;20652;-67
2022/02/13 02:50:09;;;;;;;0.90;0.80;;;17.10;61.10;;;;;;10505387;28;20211;-68
2022/02/13 02:55:32;;;;;;;1.20;1.10;;;17.20;61.20;;;;;;10494274;28;20197;-67
2022/02/13 03:00:55;;;;;;;1.53;0.87;;;17.20;61.10;;;;;;10516771;28;20694;-68
2022/02/13 03:06:17;;;;;;;1.53;0.87;;;17.20;61.10;;;;;;10532390;28;20689;-68
2022/02/13 03:11:40;;;;;;;1.93;0.90;;;17.20;61.10;;;;;;10534875;28;20223;-67
2022/02/13 03:17:06;;;;;;;0.73;0.67;;;17.10;61.00;;;;;;10524565;28;20199;-68
2022/02/13 03:22:28;;;;;;;1.07;0.83;;;17.10;61.00;;;;;;10512034;28;20219;-66
2022/02/13 03:27:52;;;;;;;0.67;0.60;;;17.20;61.00;;;;;;10517258;28;20199;-69
2022/02/13 03:33:14;;;;;;;1.50;1.00;;;17.20;61.00;;;;;;10521546;28;20695;-68
2022/02/13 03:38:36;;;;;;;0.73;0.70;;;17.20;61.00;;;;;;10500630;28;20737;-67
2022/02/13 03:43:59;;;;;;;1.30;0.87;;;17.20;61.00;;;;;;10493121;28;20686;-67
2022/02/13 03:49:21;;;;;;;1.00;0.70;;;17.10;60.90;;;;;;10498643;28;20198;-67
2022/02/13 03:54:43;;;;;;;1.20;0.90;;;17.10;60.90;;;;;;10508409;28;20219;-68
2022/02/13 04:00:09;;;;;;;1.97;0.80;;;17.10;60.90;;;;;;10491536;28;20203;-68
2022/02/13 04:05:31;;;;;;;1.80;0.80;;;17.20;61.00;;;;;;10502263;28;20619;-68
2022/02/13 04:10:53;;;;;;;1.63;0.90;;;17.10;60.90;;;;;;10531835;28;20266;-68
2022/02/13 04:16:16;;;;;;;0.93;0.80;;;17.10;60.90;;;;;;10524726;28;20199;-67
2022/02/13 04:21:39;;;;;;;1.60;0.93;;;17.10;60.90;;;;;;10521963;28;20240;-68
2022/02/13 04:27:01;;;;;;;1.07;0.80;;;17.10;60.90;;;;;;10531213;28;20222;-68
2022/02/13 04:32:24;;;;;;;1.13;0.90;;;17.10;60.90;;;;;;10506194;28;20235;-67
2022/02/13 04:37:51;;;;;;;1.27;0.80;;;17.10;60.90;;;;;;10530053;28;20184;-67
2022/02/13 04:43:13;;;;;;;1.87;0.90;;;17.10;60.90;;;;;;10502966;28;20572;-67
2022/02/13 04:48:36;;;;;;;1.10;1.00;;;17.10;60.90;;;;;;10521608;28;20192;-66
2022/02/13 04:53:58;;;;;;;0.70;0.70;;;17.10;60.90;;;;;;10489080;28;20219;-67
2022/02/13 04:59:21;;;;;;;1.20;0.80;;;17.10;60.90;;;;;;10529301;28;20199;-67
2022/02/13 05:04:45;;;;;;;0.93;0.73;;;17.10;60.90;;;;;;10503372;28;20224;-68
2022/02/13 05:10:08;;;;;;;1.37;0.90;;;17.10;60.90;;;;;;10501050;28;20204;-68
2022/02/13 05:15:30;;;;;;;0.90;0.80;;;17.10;60.90;;;;;;10526512;28;20211;-68
2022/02/13 05:20:53;;;;;;;1.70;0.80;;;17.10;60.80;;;;;;10528083;28;20632;-67
2022/02/13 05:26:15;;;;;;;1.00;0.67;;;17.10;60.80;;;;;;10529729;28;20776;-67
2022/02/13 05:31:37;;;;;;;1.20;0.80;;;17.10;60.80;;;;;;10510449;28;20263;-68
2022/02/13 05:37:01;;;;;;;0.97;0.60;;;17.10;60.90;;;;;;10488605;28;20638;-68
2022/02/13 05:42:24;;;;;;;1.30;0.73;;;17.10;60.80;;;;;;10510114;28;20216;-68
2022/02/13 05:47:46;;;;;;;1.27;0.80;;;17.10;60.90;;;;;;10493288;28;20231;-68
2022/02/13 05:53:10;;;;;;;0.70;0.60;;;17.10;60.90;;;;;;10507034;28;20211;-68
2022/02/13 05:58:34;;;;;;;0.80;0.70;;;17.10;60.90;;;;;;10523364;28;20195;-68
2022/02/13 06:03:56;;;;;;;2.60;0.90;;;17.10;60.80;;;;;;10505735;28;20214;-68
2022/02/13 06:09:21;;;;;;;1.10;0.90;;;17.10;60.80;;;;;;10534224;28;20202;-68
2022/02/13 06:14:43;;;;;;;1.03;0.90;;;17.10;60.70;;;;;;10496166;28;20567;-68
2022/02/13 06:20:06;;;;;;;0.50;0.50;;;17.10;60.80;;;;;;10531494;28;20199;-68
2022/02/13 06:25:29;;;;;;;1.40;0.90;;;17.10;60.70;;;;;;10535027;28;20220;-69
2022/02/13 06:30:52;;;;;;;1.30;0.80;;;17.10;60.70;;;;;;10520608;28;20223;-67
2022/02/13 06:36:14;;;;;;;1.33;0.80;;;17.10;60.70;;;;;;10523662;28;20188;-67
2022/02/13 06:41:38;;;;;;;1.07;0.80;;;17.10;60.70;;;;;;10515991;28;20216;-67
2022/02/13 06:47:00;;;;;;;0.73;0.73;;;17.20;60.70;;;;;;10496324;28;20216;-67
2022/02/13 06:52:22;;;;;;;1.70;0.90;;;17.10;60.70;;;;;;10507448;28;20717;-68
2022/02/13 06:57:46;;;;;;;1.27;0.80;;;17.20;60.80;;;;;;10509577;28;20200;-68
2022/02/13 07:03:08;;;;;;;1.07;0.90;;;17.20;60.70;;;;;;10495508;28;20698;-68
2022/02/13 07:08:31;;;;;;;0.60;0.60;;;17.20;60.70;;;;;;10495846;28;20223;-67
2022/02/13 07:13:55;;;;;;;0.73;0.70;;;17.20;60.70;;;;;;10533682;28;20212;-67
2022/02/13 07:19:17;;;;;;;0.70;0.63;;;17.20;60.70;;;;;;10529315;28;20196;-67
2022/02/13 07:24:40;;;;;;;1.10;1.00;;;17.20;60.70;;;;;;10516650;28;20220;-67
2022/02/13 07:30:05;;;;;;;0.73;0.60;;;17.20;60.70;;;;;;10502411;28;20211;-68
2022/02/13 07:35:27;;;;;;;0.83;0.70;;;17.20;60.70;;;;;;10530028;28;20196;-67
2022/02/13 07:40:49;;;;;;;1.53;0.87;;;17.20;60.50;;;;;;10534644;28;20223;-68
2022/02/13 07:46:12;;;;;;;1.17;0.97;;;17.20;60.20;;;;;;10502741;28;20224;-67
2022/02/13 07:51:36;;;;;;;1.10;0.90;;;17.20;60.10;;;;;;10516491;28;20216;-67
2022/02/13 07:56:58;;;;;;;0.97;0.83;;;17.10;60.00;;;;;;10516454;28;20551;-68
2022/02/13 08:02:21;;;;;;;1.40;0.97;;;17.20;60.20;;;;;;10509143;28;20238;-67
2022/02/13 08:07:47;;;;;;;1.37;0.90;;;17.20;60.20;;;;;;10532501;28;20216;-67
2022/02/13 08:13:09;;;;;;;1.40;0.77;;;17.10;60.30;;;;;;10522761;28;20264;-67
2022/02/13 08:18:33;;;;;;;1.37;0.73;;;17.10;60.30;;;;;;10518894;28;20201;-67
2022/02/13 08:23:55;;;;;;;0.90;0.60;;;17.10;60.40;;;;;;10515569;28;20223;-68
2022/02/13 08:29:18;;;;;;;2.37;1.00;;;17.20;60.80;;;;;;10514002;28;20199;-69
2022/02/13 08:34:42;;;;;;;1.73;1.10;;;17.20;60.80;;;;;;10518775;28;20348;-69
2022/02/13 08:40:05;;;;;;;2.20;1.43;;;17.20;60.70;;;;;;10526449;28;20203;-69
2022/02/13 08:45:27;;;;;;;2.10;1.50;;;17.20;60.60;;;;;;10484325;28;20706;-69
2022/02/13 08:50:52;;;;;;;2.80;1.70;;;17.20;60.50;;;;;;10504911;28;20223;-69
2022/02/13 08:56:15;;;;;;;1.87;1.60;;;17.30;60.50;;;;;;10508508;28;20246;-69
2022/02/13 09:01:37;;;;;;;2.07;1.80;;;17.30;60.50;;;;;;10505414;28;20226;-69
2022/02/13 09:07:00;;;;;;;2.97;2.03;;;17.30;60.60;;;;;;10495220;28;20216;-68
2022/02/13 09:12:23;;;;;;;2.53;1.73;;;17.30;60.60;;;;;;10503383;28;20656;-68
2022/02/13 09:17:45;;;;;;;2.93;1.90;;;17.30;60.50;;;;;;10531213;28;20200;-68
2022/02/13 09:23:09;;;;;;;2.53;1.87;;;17.40;60.40;;;;;;10526097;28;20585;-69
2022/02/13 09:28:31;;;;;;;2.57;2.07;;;17.40;60.40;;;;;;10519629;22;20228;-67
2022/02/13 09:33:53;;;;;;;2.83;1.77;;;17.40;60.40;;;;;;10450068;28;20192;-68
2022/02/13 09:39:17;;;;;;;3.47;1.80;;;17.40;60.40;;;;;;10453620;28;20220;-66
2022/02/13 09:44:39;;;;;;;5.10;2.00;;;17.40;60.30;;;;;;10458844;28;20209;-64
2022/02/13 09:50:01;;;;;;;2.87;1.40;;;17.40;60.20;;;;;;10454948;28;20226;-66
2022/02/13 09:55:26;;;;;;;5.07;1.87;;;17.40;60.20;;;;;;10483036;28;20612;-66
2022/02/13 10:00:50;;;;;;;2.03;1.57;;;17.40;60.20;;;;;;10466195;28;20740;-66
2022/02/13 10:06:23;;;;;;;2.13;1.40;;;17.40;60.10;;;;;;10458323;28;20209;-65
2022/02/13 10:11:46;;;;;;;2.33;1.27;;;17.50;59.90;;;;;;10456757;28;20209;-65
2022/02/13 10:17:08;;;;;;;2.90;1.40;;;17.50;60.00;;;;;;10455109;28;20674;-65
2022/02/13 10:22:36;;;;;;;2.87;1.67;;;17.50;60.10;;;;;;10455129;28;20220;-65
2022/02/13 10:28:00;;;;;;;1.97;1.30;;;17.50;60.10;;;;;;10455604;28;20216;-66
2022/02/13 10:33:24;;;;;;;1.83;1.50;;;17.50;60.20;;;;;;10455906;28;20197;-65
2022/02/13 10:38:46;;;;;;;2.87;1.50;;;17.40;60.20;;;;;;10465619;28;20212;-65
2022/02/13 10:44:10;;;;;;;2.63;1.50;;;17.40;60.20;;;;;;10476650;28;20688;-66
2022/02/13 10:49:36;;;;;;;2.33;1.50;;;17.40;60.00;;;;;;10462337;28;20567;-65
2022/02/13 10:54:59;;;;;;;2.03;1.30;;;17.40;60.00;;;;;;10471372;28;20188;-68
2022/02/13 11:00:23;;;;;;;3.00;1.23;;;17.40;60.10;;;;;;10470119;28;20221;-66
2022/02/13 11:05:46;;;;;;;3.40;1.37;;;17.40;60.30;;;;;;10467725;28;20216;-65
2022/02/13 11:11:08;;;;;;;2.70;1.80;;;17.40;60.30;;;;;;10467927;28;20228;-67
2022/02/13 11:16:34;;;;;;;2.00;1.10;;;17.50;60.10;;;;;;10475011;28;20200;-65
2022/02/13 11:21:56;;;;;;;2.50;1.33;;;17.50;60.40;;;;;;10481721;28;20575;-65
2022/02/13 11:27:21;;;;;;;2.13;1.60;;;17.50;60.40;;;;;;10449012;28;20216;-65
2022/02/13 11:32:45;;;;;;;2.93;1.40;;;17.50;60.60;;;;;;10457691;28;20193;-64
2022/02/13 11:38:10;;;;;;;5.27;1.60;;;17.60;60.70;;;;;;10451072;28;20339;-65
2022/02/13 11:43:59;;;;;;;2.17;1.50;;;17.60;60.90;;;;;;10440723;28;20204;-64
2022/02/13 11:49:22;;;;;;;1.93;1.27;;;17.60;60.90;;;;;;10453407;28;20224;-65
2022/02/13 11:54:54;;;;;;;1.95;1.38;;;17.60;61.10;;;;;;10445738;28;20420;-66
2022/02/13 12:00:17;;;;;;;8.70;1.30;;;17.80;60.10;;;;;;10446617;28;20209;-66
2022/02/13 12:05:41;;;;;;;1.30;0.90;;;17.70;60.60;;;;;;10459549;28;20215;-66
2022/02/13 12:11:05;;;;;;;2.40;1.20;;;17.70;60.60;;;;;;10432682;28;20638;-66
2022/02/13 12:16:27;;;;;;;1.60;1.20;;;17.70;60.60;;;;;;10445775;28;20192;-66
2022/02/13 12:22:07;;;;;;;1.77;1.30;;;17.70;61.10;;;;;;10452079;28;20197;-67
2022/02/13 12:27:29;;;;;;;2.93;0.93;;;17.70;61.10;;;;;;10452545;28;20220;-67
2022/02/13 12:32:57;;;;;;;1.27;1.00;;;17.70;61.20;;;;;;10475390;28;20220;-69
2022/02/13 12:38:21;;;;;;;1.43;0.90;;;17.70;61.10;;;;;;10439105;28;20292;-68
2022/02/13 12:43:43;;;;;;;6.20;1.60;;;17.70;61.00;;;;;;10437124;28;20567;-67
2022/02/13 12:49:06;;;;;;;2.20;1.53;;;17.60;60.00;;;;;;10456374;28;20225;-66
2022/02/13 12:54:30;;;;;;;4.33;2.30;;;17.60;55.50;;;;;;10462162;28;20207;-67
2022/02/13 12:59:52;;;;;;;2.40;1.97;;;17.50;50.70;;;;;;10446972;28;20226;-66
2022/02/13 13:05:19;;;;;;;2.47;2.03;;;17.30;48.40;;;;;;10448277;28;20586;-68
2022/02/13 13:10:52;;;;;;;2.90;1.83;;;17.30;47.20;;;;;;10485620;28;20251;-66
2022/02/13 13:16:21;;;;;;;3.60;2.00;;;17.20;47.20;;;;;;10445980;28;20197;-65
2022/02/13 13:21:44;;;;;;;3.00;1.70;;;17.20;46.90;;;;;;10452525;28;20303;-66
2022/02/13 13:27:10;;;;;;;2.57;1.70;;;17.10;46.90;;;;;;10455644;28;20212;-67
2022/02/13 13:32:39;;;;;;;2.90;1.93;;;17.10;46.20;;;;;;10465651;28;20230;-67
2022/02/13 13:38:05;;;;;;;2.23;1.70;;;17.10;45.50;;;;;;10465811;28;20307;-66
2022/02/13 13:43:29;;;;;;;2.77;1.80;;;17.10;45.20;;;;;;10477824;28;20234;-67
2022/02/13 13:48:51;;;;;;;3.57;2.20;;;17.00;44.80;;;;;;10483758;28;20281;-67
2022/02/13 13:54:15;;;;;;;2.23;1.93;;;17.00;44.30;;;;;;10466518;28;20558;-66
2022/02/13 13:59:38;;;;;;;2.90;2.03;;;17.00;43.90;;;;;;10491966;28;20292;-65
2022/02/13 14:05:00;;;;;;;2.53;1.80;;;17.00;44.00;;;;;;10466962;28;20662;-63
2022/02/13 14:10:23;;;;;;;3.97;1.80;;;16.90;43.70;;;;;;10450204;28;20225;-64
2022/02/13 14:15:47;;;;;;;3.13;2.00;;;16.90;43.20;;;;;;10475698;28;20569;-66
2022/02/13 14:21:14;;;;;;;3.10;2.00;;;16.90;43.20;;;;;;10490717;28;20220;-64
2022/02/13 14:26:37;;;;;;;2.93;1.93;;;16.90;43.30;;;;;;10457916;28;20245;-66
2022/02/13 14:32:03;;;;;;;3.07;2.13;;;16.90;43.80;;;;;;10481001;28;20196;-67
2022/02/13 14:37:25;;;;;;;2.73;2.10;;;16.90;43.40;;;;;;10498298;28;20201;-69
2022/02/13 14:42:47;;;;;;;1.97;1.77;;;16.90;44.60;;;;;;10498143;28;20200;-68
2022/02/13 14:48:11;;;;;;;2.40;1.50;;;17.00;45.00;;;;;;10497480;28;20732;-63
2022/02/13 14:53:33;;;;;;;2.97;1.73;;;17.00;46.00;;;;;;10463467;28;20197;-63
2022/02/13 14:58:55;;;;;;;5.20;1.70;;;17.00;45.50;;;;;;10418215;28;20223;-64
2022/02/13 15:04:18;;;;;;;3.50;2.00;;;17.00;44.80;;;;;;10453390;28;20670;-64
2022/02/13 15:09:41;;;;;;;2.10;1.70;;;17.00;44.10;;;;;;10452376;28;20216;-64
2022/02/13 15:15:03;;;;;;;2.53;1.80;;;17.00;43.80;;;;;;10410552;28;20241;-64
2022/02/13 15:20:26;;;;;;;4.73;2.13;;;16.90;42.10;;;;;;10369141;28;20225;-64
2022/02/13 15:25:49;;;;;;;2.30;1.60;;;16.80;40.90;;;;;;10366939;28;20210;-64
2022/02/13 15:31:12;;;;;;;3.27;2.03;;;16.80;41.40;;;;;;10450981;23;20225;-67
2022/02/13 15:36:35;;;;;;;3.33;2.13;;;16.80;41.80;;;;;;10446200;28;20553;-68
2022/02/13 15:41:57;;;;;;;7.17;2.57;;;16.80;41.70;;;;;;10439370;28;20680;-67
2022/02/13 15:47:20;;;;;;;2.80;1.90;;;16.80;41.60;;;;;;10454589;28;20224;-68
2022/02/13 15:52:43;;;;;;;2.90;2.07;;;16.80;41.60;;;;;;10421329;28;20699;-68
2022/02/13 15:58:05;;;;;;;4.73;2.27;;;16.70;41.40;;;;;;10412792;28;20209;-69
2022/02/13 16:03:27;;;;;;;2.93;2.30;;;16.80;41.50;;;;;;10413621;28;20691;-69
2022/02/13 16:08:51;;;;;;;2.20;1.97;;;16.70;41.40;;;;;;10454115;28;20221;-68
2022/02/13 16:14:13;;;;;;;3.20;1.90;;;16.70;41.30;;;;;;10448258;28;20206;-69
2022/02/13 16:19:36;;;;;;;1.80;1.30;;;16.60;41.10;;;;;;10444728;28;20596;-69
2022/02/13 16:25:00;;;;;;;2.13;1.50;;;16.70;43.30;;;;;;10453603;28;20196;-69
2022/02/13 16:30:22;;;;;;;2.03;1.33;;;16.80;47.50;;;;;;10452928;28;20216;-70
2022/02/13 16:35:44;;;;;;;3.00;1.40;;;16.80;48.80;;;;;;10411740;28;20688;-69
2022/02/13 16:41:08;;;;;;;2.13;1.30;;;16.90;49.80;;;;;;10425871;28;20591;-71
2022/02/13 16:46:31;;;;;;;2.20;1.47;;;17.00;50.30;;;;;;10454901;28;20212;-69
2022/02/13 16:51:53;;;;;;;2.07;1.63;;;17.10;51.10;;;;;;10425604;28;20222;-70
2022/02/13 16:57:16;;;;;;;3.33;1.47;;;17.10;51.40;;;;;;10423877;28;20209;-69
2022/02/13 17:02:38;;;;;;;1.20;1.10;;;17.10;51.70;;;;;;10444759;28;20209;-69
2022/02/13 17:08:00;;;;;;;2.00;1.20;;;17.10;52.00;;;;;;10452301;28;20696;-69
2022/02/13 17:13:25;;;;;;;1.70;1.10;;;17.20;52.30;;;;;;10419369;28;20221;-69
2022/02/13 17:18:47;;;;;;;1.23;1.03;;;17.10;53.00;;;;;;10435826;28;20221;-69
2022/02/13 17:24:09;;;;;;;1.40;1.10;;;17.20;52.70;;;;;;10444059;28;20198;-69
2022/02/13 17:29:33;;;;;;;1.40;1.10;;;17.20;52.90;;;;;;10409623;28;20214;-69
2022/02/13 17:34:56;;;;;;;1.30;1.17;;;17.20;53.00;;;;;;10431831;28;20217;-69
2022/02/13 17:40:18;;;;;;;1.43;1.00;;;17.20;53.30;;;;;;10447479;28;20713;-68
2022/02/13 17:45:42;;;;;;;1.63;1.17;;;17.20;53.40;;;;;;10452755;28;20798;-68
2022/02/13 17:51:04;;;;;;;1.70;1.13;;;17.20;53.60;;;;;;10439638;28;20751;-68
2022/02/13 17:56:26;;;;;;;1.27;1.17;;;17.20;53.70;;;;;;10419387;28;20216;-68
2022/02/13 18:01:50;;;;;;;1.73;1.33;;;17.20;53.80;;;;;;10417304;28;20228;-69
2022/02/13 18:07:12;;;;;;;1.77;1.00;;;17.20;53.90;;;;;;10432966;28;20232;-68
2022/02/13 18:12:34;;;;;;;1.57;1.10;;;17.20;54.00;;;;;;10417443;28;20198;-69
2022/02/13 18:18:02;;;;;;;1.07;0.97;;;17.20;54.10;;;;;;10417227;28;20218;-69
2022/02/13 18:23:24;;;;;;;1.70;1.03;;;17.30;54.30;;;;;;10417030;28;20198;-69
2022/02/13 18:28:46;;;;;;;2.17;1.13;;;17.20;54.40;;;;;;10417666;28;20592;-68
2022/02/13 18:34:10;;;;;;;2.00;0.97;;;17.30;54.60;;;;;;10425627;28;20202;-69
2022/02/13 18:39:33;;;;;;;0.97;0.80;;;17.30;54.60;;;;;;10417542;28;20213;-69
2022/02/13 18:44:55;;;;;;;1.43;1.00;;;17.30;54.70;;;;;;10414137;28;20599;-68
2022/02/13 18:50:18;;;;;;;1.40;1.03;;;17.20;54.80;;;;;;10428752;28;20221;-69
2022/02/13 18:55:40;;;;;;;1.77;1.27;;;17.30;54.90;;;;;;10452227;28;20198;-68
2022/02/13 19:01:03;;;;;;;1.20;1.03;;;17.30;54.90;;;;;;10414300;28;20218;-68
2022/02/13 19:06:26;;;;;;;1.55;1.17;;;17.30;55.00;;;;;;10413931;28;20995;-68
2022/02/13 19:11:48;;;;;;;1.43;1.00;;;17.90;53.20;;;;;;10416972;28;20213;-70
2022/02/13 19:17:10;;;;;;;1.27;1.00;;;17.50;54.40;;;;;;10414213;28;20209;-68
2022/02/13 19:22:34;;;;;;;1.77;1.10;;;17.40;54.90;;;;;;10416616;28;20664;-69
2022/02/13 19:33:38;;;;;;;1.47;1.00;;;17.30;55.40;;;;;;10422564;28;20192;-69
2022/02/13 19:39:01;;;;;;;1.33;1.13;;;17.30;55.60;;;;;;10456079;28;20655;-68
2022/02/13 19:44:23;;;;;;;3.90;1.30;;;17.30;56.20;;;;;;10455628;28;20204;-69
2022/02/13 19:49:45;;;;;;;1.60;1.17;;;17.30;55.60;;;;;;10447083;28;20225;-69
2022/02/13 19:55:09;;;;;;;1.17;1.03;;;17.30;55.70;;;;;;10414307;28;20209;-68
2022/02/13 20:00:34;;;;;;;1.53;1.20;;;17.30;55.80;;;;;;10436790;28;20209;-69
2022/02/13 20:05:56;;;;;;;2.17;1.30;;;17.20;55.80;;;;;;10416592;28;20228;-69
2022/02/13 20:11:20;;;;;;;3.30;1.40;;;17.20;55.80;;;;;;10440452;28;20687;-69
2022/02/13 20:16:42;;;;;;;2.37;1.13;;;17.20;55.90;;;;;;10430927;28;20196;-69
2022/02/13 20:22:04;;;;;;;2.63;1.50;;;17.20;55.90;;;;;;10428555;28;20217;-69
2022/02/13 20:27:29;;;;;;;1.40;1.20;;;17.10;55.90;;;;;;10430716;28;20255;-69
2022/02/13 20:32:52;;;;;;;1.60;1.23;;;17.10;55.90;;;;;;10427872;28;20189;-68
2022/02/13 20:38:15;;;;;;;2.17;1.27;;;17.10;56.00;;;;;;10431007;28;20284;-68
2022/02/13 20:43:38;;;;;;;2.13;1.53;;;17.10;56.00;;;;;;10431362;28;20193;-68
2022/02/13 20:49:00;;;;;;;1.30;1.20;;;17.10;56.10;;;;;;10431622;28;20217;-69
2022/02/13 20:54:22;;;;;;;1.30;1.20;;;17.10;56.20;;;;;;10427607;28;20193;-69
2022/02/13 20:59:46;;;;;;;1.73;1.30;;;17.10;56.20;;;;;;10432202;28;20221;-68
2022/02/13 21:05:09;;;;;;;1.30;1.20;;;17.10;56.30;;;;;;10430063;28;20204;-69
2022/02/13 21:10:31;;;;;;;1.70;1.30;;;17.10;56.30;;;;;;10427061;28;20252;-69
2022/02/13 21:15:55;;;;;;;1.87;1.07;;;17.10;56.40;;;;;;10428941;28;20690;-69
2022/02/13 21:21:17;;;;;;;1.47;1.23;;;17.10;56.50;;;;;;10429820;28;20220;-69
2022/02/13 21:26:40;;;;;;;1.63;1.10;;;17.10;56.50;;;;;;10430241;28;20209;-69
2022/02/13 21:32:04;;;;;;;1.20;1.00;;;17.10;56.50;;;;;;10447753;22;20742;-68
2022/02/13 21:37:26;;;;;;;2.70;1.43;;;17.10;56.60;;;;;;10425688;28;20209;-68
2022/02/13 21:42:48;;;;;;;3.80;1.60;;;17.10;57.20;;;;;;10407741;28;20229;-69
2022/02/13 21:48:14;;;;;;;1.53;1.33;;;17.10;56.70;;;;;;10409394;28;20221;-68
2022/02/13 21:53:36;;;;;;;2.47;1.30;;;17.10;56.80;;;;;;10408260;28;20197;-68
2022/02/13 21:58:58;;;;;;;1.90;1.40;;;17.10;56.80;;;;;;10409864;28;20213;-68
2022/02/13 22:04:21;;;;;;;1.67;1.20;;;17.00;56.90;;;;;;10408196;28;20194;-68
2022/02/13 22:09:43;;;;;;;1.90;1.17;;;17.00;56.90;;;;;;10410083;28;20604;-69
2022/02/13 22:15:06;;;;;;;1.47;1.20;;;17.00;56.90;;;;;;10408251;28;20615;-70
2022/02/13 22:20:30;;;;;;;1.53;1.17;;;17.00;56.90;;;;;;10408676;28;20213;-69
2022/02/13 22:25:52;;;;;;;1.20;1.10;;;17.00;57.00;;;;;;10409009;28;20194;-70
2022/02/13 22:31:14;;;;;;;2.03;1.33;;;17.00;57.00;;;;;;10368185;28;20230;-70
2022/02/13 22:36:37;;;;;;;2.80;1.37;;;17.00;57.10;;;;;;10375357;28;20198;-69
2022/02/13 22:41:59;;;;;;;1.70;0.90;;;17.00;57.10;;;;;;10417354;28;20217;-70
2022/02/13 22:47:21;;;;;;;2.20;1.40;;;17.00;57.20;;;;;;10416212;28;20217;-70
2022/02/13 22:52:45;;;;;;;3.20;1.47;;;17.00;57.20;;;;;;10415899;28;20592;-70
2022/02/13 22:58:08;;;;;;;1.43;1.23;;;17.00;57.20;;;;;;10416466;28;20201;-70
2022/02/13 23:03:30;;;;;;;1.60;1.50;;;17.00;57.80;;;;;;10405438;28;20252;-70
2022/02/13 23:14:34;;;;;;;2.00;1.10;;;17.00;57.40;;;;;;10415717;28;20317;-70
2022/02/13 23:19:56;;;;;;;2.10;1.30;;;17.00;57.30;;;;;;10414887;28;20213;-70
2022/02/13 23:25:20;;;;;;;1.37;1.20;;;17.00;57.40;;;;;;10414089;28;20198;-70
2022/02/13 23:30:42;;;;;;;2.23;1.20;;;17.00;57.40;;;;;;10406682;28;20724;-70
2022/02/13 23:36:06;;;;;;;1.23;1.10;;;17.00;57.40;;;;;;10414484;28;20194;-69
2022/02/13 23:41:30;;;;;;;1.20;1.10;;;17.00;57.50;;;;;;10414168;28;20269;-70
2022/02/13 23:46:52;;;;;;;1.53;1.30;;;17.00;57.50;;;;;;10413038;28;20277;-70
2022/02/13 23:52:14;;;;;;;1.50;1.10;;;17.00;57.50;;;;;;10413368;28;20217;-70
2022/02/13 23:57:37;;;;;;;1.27;1.00;;;17.00;57.60;;;;;;10413530;28;20200;-70
